Time;durP1;ratioP1;P1;durP2;ratioP2;P2;SDS_P1;SDS_P2;PMS_P1;PMS_P2;Temp;Humidity;BMP_temperature;BMP_pressure;BME280_temperature;BME280_humidity;BME280_pressure;Samples;Min_cycle;Max_cycle;Signal;HPM_P1;HPM_P2
2024/04/01 00:01:47;;;;;;;;;;;;;;;20.71;42.83;100620.47;102654;1297;62104;-81
2024/04/01 00:04:12;;;;;;;;;;;;;;;20.71;42.90;100618.52;102680;1291;63376;-80
2024/04/01 00:06:38;;;;;;;;;;;;;;;20.70;42.97;100617.81;102908;1291;63360;-80
2024/04/01 00:09:03;;;;;;;;;;;;;;;20.71;42.83;100616.02;102940;1294;62210;-81
2024/04/01 00:11:29;;;;;;;;;;;;;;;20.70;42.96;100614.11;102967;1295;62236;-81
2024/04/01 00:13:54;;;;;;;;;;;;;;;20.70;42.83;100610.33;102983;1294;63392;-82
2024/04/01 00:16:20;;;;;;;;;;;;;;;20.71;42.95;100615.84;102942;1293;62107;-82
2024/04/01 00:18:46;;;;;;;;;;;;;;;20.70;42.88;100615.15;102962;1294;62237;-81
2024/04/01 00:21:12;;;;;;;;;;;;;;;20.71;42.89;100614.42;102794;1295;63493;-80
2024/04/01 00:23:38;;;;;;;;;;;;;;;20.70;42.93;100611.77;102673;1296;62635;-81
2024/04/01 00:26:03;;;;;;;;;;;;;;;20.70;42.99;100610.70;102931;1289;62226;-81
2024/04/01 00:28:29;;;;;;;;;;;;;;;20.70;42.90;100611.05;103183;1294;62306;-82
2024/04/01 00:30:54;;;;;;;;;;;;;;;20.70;42.96;100612.30;102938;1290;72484;-81
2024/04/01 00:33:20;;;;;;;;;;;;;;;20.70;42.91;100611.77;102930;1294;62127;-81
2024/04/01 00:35:46;;;;;;;;;;;;;;;20.70;42.84;100612.52;102978;1295;62200;-82
2024/04/01 00:38:11;;;;;;;;;;;;;;;20.70;42.99;100611.59;102968;1292;63490;-80
2024/04/01 00:40:37;;;;;;;;;;;;;;;20.70;42.87;100604.09;102989;1295;63280;-82
2024/04/01 00:43:06;;;;;;;;;;;;;;;20.70;42.94;100603.75;102944;1291;72933;-81
2024/04/01 00:45:32;;;;;;;;;;;;;;;20.70;42.98;100599.48;102973;1292;75298;-80
2024/04/01 00:47:59;;;;;;;;;;;;;;;20.70;42.91;100600.20;102962;1294;63302;-81
2024/04/01 00:50:28;;;;;;;;;;;;;;;20.69;42.94;100602.52;102967;1292;62243;-81
2024/04/01 00:52:54;;;;;;;;;;;;;;;20.70;42.82;100608.23;102915;1289;72569;-81
2024/04/01 00:55:20;;;;;;;;;;;;;;;20.70;42.91;100609.30;102701;1295;62205;-80
2024/04/01 00:57:46;;;;;;;;;;;;;;;20.70;43.02;100608.95;103005;1294;63495;-81
2024/04/01 01:00:11;;;;;;;;;;;;;;;20.70;42.92;100609.29;102983;1294;62209;-80
2024/04/01 01:02:38;;;;;;;;;;;;;;;20.69;43.00;100607.91;102710;1294;62187;-80
2024/04/01 01:05:03;;;;;;;;;;;;;;;20.69;43.08;100608.59;102756;1296;63406;-80
2024/04/01 01:07:30;;;;;;;;;;;;;;;20.69;43.02;100607.91;102718;1298;62292;-82
2024/04/01 01:09:55;;;;;;;;;;;;;;;20.69;42.94;100606.11;102681;1297;63372;-82
2024/04/01 01:12:21;;;;;;;;;;;;;;;20.69;43.17;100606.13;102673;1298;62204;-82
2024/04/01 01:14:48;;;;;;;;;;;;;;;20.70;43.09;100604.84;102699;1295;62601;-82
2024/04/01 01:17:14;;;;;;;;;;;;;;;20.69;43.09;100600.75;102737;1296;62385;-81
2024/04/01 01:19:39;;;;;;;;;;;;;;;20.69;42.80;100603.64;102611;1298;63397;-82
2024/04/01 01:22:05;;;;;;;;;;;;;;;20.69;42.90;100605.95;102805;1296;63366;-81
2024/04/01 01:24:32;;;;;;;;;;;;;;;20.69;42.85;100605.59;102707;1292;63475;-82
2024/04/01 01:26:58;;;;;;;;;;;;;;;20.69;42.89;100610.97;102740;1297;72219;-81
2024/04/01 01:29:24;;;;;;;;;;;;;;;20.69;43.08;100610.61;102670;1295;62845;-80
2024/04/01 01:31:50;;;;;;;;;;;;;;;20.69;43.08;100611.51;102701;1293;62520;-82
2024/04/01 01:34:16;;;;;;;;;;;;;;;20.69;43.01;100615.25;102758;1295;63445;-81
2024/04/01 01:36:42;;;;;;;;;;;;;;;20.68;42.97;100612.43;102903;1289;62766;-81
2024/04/01 01:39:12;;;;;;;;;;;;;;;20.69;42.96;100613.30;102983;1289;62192;-80
2024/04/01 01:41:39;;;;;;;;;;;;;;;20.68;43.12;100612.06;103009;1295;62143;-81
2024/04/01 01:44:04;;;;;;;;;;;;;;;20.68;42.98;100615.81;102940;1295;62374;-81
2024/04/01 01:46:32;;;;;;;;;;;;;;;20.69;43.13;100616.00;102916;1298;62255;-80
2024/04/01 01:48:59;;;;;;;;;;;;;;;20.69;43.08;100617.78;102919;1294;62122;-82
2024/04/01 01:51:26;;;;;;;;;;;;;;;20.68;43.08;100621.02;102955;1293;62195;-81
2024/04/01 01:53:51;;;;;;;;;;;;;;;20.68;43.09;100618.52;102945;1294;62254;-80
2024/04/01 01:56:18;;;;;;;;;;;;;;;20.68;42.97;100615.64;102929;1295;63377;-81
2024/04/01 01:58:44;;;;;;;;;;;;;;;20.68;43.05;100616.17;102951;1294;63273;-81
2024/04/01 02:01:10;;;;;;;;;;;;;;;20.69;43.01;100618.67;102927;1289;62200;-81
2024/04/01 02:03:36;;;;;;;;;;;;;;;20.68;43.00;100619.04;102950;1303;62289;-80
2024/04/01 02:06:02;;;;;;;;;;;;;;;20.68;43.06;100619.77;103069;1290;62428;-81
2024/04/01 02:08:28;;;;;;;;;;;;;;;20.68;43.10;100622.99;102952;1290;63414;-82
2024/04/01 02:10:56;;;;;;;;;;;;;;;20.68;43.06;100625.49;102751;1295;62172;-77
2024/04/01 02:13:22;;;;;;;;;;;;;;;20.68;43.10;100632.99;103000;1294;62203;-81
2024/04/01 02:15:48;;;;;;;;;;;;;;;20.68;43.12;100634.61;102966;1295;62415;-81
2024/04/01 02:18:13;;;;;;;;;;;;;;;20.68;43.14;100632.83;102951;1295;63327;-81
2024/04/01 02:20:39;;;;;;;;;;;;;;;20.68;42.99;100631.58;102900;1289;62239;-81
2024/04/01 02:23:05;;;;;;;;;;;;;;;20.68;43.08;100630.16;102465;1295;711962;-82
2024/04/01 02:25:33;;;;;;;;;;;;;;;20.68;43.07;100630.51;102929;1294;63428;-81
2024/04/01 02:27:59;;;;;;;;;;;;;;;20.68;43.21;100629.43;102964;1294;62114;-82
2024/04/01 02:30:25;;;;;;;;;;;;;;;20.68;43.06;100628.73;102905;1295;62226;-81
2024/04/01 02:32:51;;;;;;;;;;;;;;;20.68;43.24;100627.64;102946;1295;62411;-81
2024/04/01 02:35:16;;;;;;;;;;;;;;;20.68;43.06;100619.61;102916;1294;63294;-81
2024/04/01 02:37:42;;;;;;;;;;;;;;;20.68;43.10;100622.11;102996;1295;62146;-81
2024/04/01 02:40:10;;;;;;;;;;;;;;;20.68;43.17;100621.41;102739;1294;62265;-80
2024/04/01 02:42:36;;;;;;;;;;;;;;;20.68;43.18;100620.33;102948;1293;75298;-80
2024/04/01 02:45:06;;;;;;;;;;;;;;;20.68;43.12;100620.87;102971;1291;62190;-81
2024/04/01 02:47:31;;;;;;;;;;;;;;;20.68;43.09;100622.29;102940;1294;62094;-81
2024/04/01 02:49:57;;;;;;;;;;;;;;;20.67;43.20;100624.64;102903;1298;62643;-81
2024/04/01 02:52:24;;;;;;;;;;;;;;;20.67;43.02;100619.98;103146;1295;63374;-80
2024/04/01 02:54:50;;;;;;;;;;;;;;;20.67;43.15;100613.55;102927;1294;62176;-83
2024/04/01 02:57:15;;;;;;;;;;;;;;;20.67;43.19;100613.02;102944;1292;62187;-82
2024/04/01 02:59:41;;;;;;;;;;;;;;;20.67;43.19;100612.50;102948;1292;62701;-81
2024/04/01 03:02:08;;;;;;;;;;;;;;;20.67;43.16;100609.29;102936;1294;63475;-82
2024/04/01 03:04:37;;;;;;;;;;;;;;;20.67;43.18;100608.24;102911;1293;75287;-80
2024/04/01 03:07:04;;;;;;;;;;;;;;;20.66;43.09;100603.79;102940;1294;62195;-81
2024/04/01 03:09:29;;;;;;;;;;;;;;;20.67;43.18;100605.73;102977;1291;62605;-82
2024/04/01 03:11:55;;;;;;;;;;;;;;;20.66;43.09;100599.89;102690;1294;62130;-81
2024/04/01 03:14:21;;;;;;;;;;;;;;;20.66;43.16;100597.55;102699;1295;62141;-80
2024/04/01 03:16:46;;;;;;;;;;;;;;;20.66;43.05;100596.45;102744;1292;62316;-81
2024/04/01 03:19:12;;;;;;;;;;;;;;;20.67;43.19;100597.48;102955;1294;63482;-80
2024/04/01 03:21:38;;;;;;;;;;;;;;;20.66;43.16;100595.05;102978;1291;62111;-82
2024/04/01 03:24:04;;;;;;;;;;;;;;;20.66;43.12;100590.42;102910;1294;62275;-80
2024/04/01 03:26:29;;;;;;;;;;;;;;;20.66;43.12;100593.30;102918;1292;62191;-80
2024/04/01 03:28:55;;;;;;;;;;;;;;;20.66;43.22;100592.06;103233;1294;62219;-81
2024/04/01 03:31:21;;;;;;;;;;;;;;;20.66;43.08;100590.98;102701;1294;62566;-81
2024/04/01 03:33:46;;;;;;;;;;;;;;;20.66;43.14;100597.05;102934;1289;62183;-83
2024/04/01 03:36:12;;;;;;;;;;;;;;;20.66;43.24;100593.98;102992;1290;63277;-81
2024/04/01 03:38:37;;;;;;;;;;;;;;;20.65;43.18;100597.44;102701;1294;63612;-81
2024/04/01 03:41:03;;;;;;;;;;;;;;;20.66;43.11;100597.59;102941;1294;62118;-80
2024/04/01 03:43:30;;;;;;;;;;;;;;;20.65;43.15;100601.20;102986;1291;62229;-81
2024/04/01 03:45:59;;;;;;;;;;;;;;;20.65;43.10;100604.41;102963;1292;63173;-81
2024/04/01 03:48:25;;;;;;;;;;;;;;;20.65;43.12;100610.13;102937;1290;75333;-81
2024/04/01 03:50:51;;;;;;;;;;;;;;;20.65;43.19;100607.45;102949;1293;63266;-80
2024/04/01 03:53:17;;;;;;;;;;;;;;;20.65;43.12;100612.27;102976;1294;62234;-81
2024/04/01 03:55:42;;;;;;;;;;;;;;;20.65;43.13;100611.58;102711;1289;62201;-80
2024/04/01 03:58:08;;;;;;;;;;;;;;;20.65;43.22;100613.90;102918;1292;62197;-80
2024/04/01 04:00:34;;;;;;;;;;;;;;;20.65;43.24;100613.39;102986;1294;62201;-80
2024/04/01 04:03:01;;;;;;;;;;;;;;;20.66;43.23;100614.25;102960;1294;62137;-81
2024/04/01 04:05:26;;;;;;;;;;;;;;;20.65;43.17;100613.04;102936;1289;63319;-80
2024/04/01 04:07:53;;;;;;;;;;;;;;;20.64;43.06;100621.10;103018;1292;63372;-80
2024/04/01 04:10:19;;;;;;;;;;;;;;;20.64;43.26;100623.23;102900;1290;62185;-81
2024/04/01 04:12:44;;;;;;;;;;;;;;;20.64;43.16;100625.98;102943;1294;62283;-82
2024/04/01 04:15:10;;;;;;;;;;;;;;;20.63;43.20;100629.41;102917;1290;63388;-80
2024/04/01 04:17:36;;;;;;;;;;;;;;;20.63;43.20;100632.51;102988;1294;62563;-80
2024/04/01 04:20:02;;;;;;;;;;;;;;;20.62;43.23;100638.11;102921;1292;62227;-80
2024/04/01 04:22:28;;;;;;;;;;;;;;;20.60;43.30;100643.20;102932;1290;62215;-82
2024/04/01 04:24:55;;;;;;;;;;;;;;;20.59;43.24;100651.48;102972;1289;62194;-81
2024/04/01 04:27:21;;;;;;;;;;;;;;;20.58;43.36;100655.83;102722;1292;62252;-80
2024/04/01 04:29:47;;;;;;;;;;;;;;;20.57;43.38;100661.87;102970;1294;62209;-79
2024/04/01 04:32:12;;;;;;;;;;;;;;;20.56;43.36;100666.23;102847;1290;62305;-80
2024/04/01 04:34:38;;;;;;;;;;;;;;;20.54;43.57;100671.74;103146;1291;62488;-80
2024/04/01 04:37:07;;;;;;;;;;;;;;;20.53;43.36;100673.07;103108;1290;62207;-80
2024/04/01 04:39:34;;;;;;;;;;;;;;;20.52;43.51;100675.45;103440;1291;62209;-80
2024/04/01 04:41:59;;;;;;;;;;;;;;;20.51;43.52;100674.59;103599;1291;62172;-80
2024/04/01 04:44:25;;;;;;;;;;;;;;;20.51;43.58;100676.20;103806;1291;62184;-78
2024/04/01 04:46:50;;;;;;;;;;;;;;;20.51;43.67;100685.86;103676;1295;62124;-79
2024/04/01 04:49:17;;;;;;;;;;;;;;;20.51;43.70;100690.70;104001;1294;62819;-79
2024/04/01 04:51:44;;;;;;;;;;;;;;;20.51;43.61;100693.39;104023;1292;62209;-81
2024/04/01 04:54:09;;;;;;;;;;;;;;;20.50;43.67;100688.11;103687;1291;61999;-79
2024/04/01 04:56:35;;;;;;;;;;;;;;;20.48;43.76;100690.89;104482;1289;61219;-80
2024/04/01 04:59:01;;;;;;;;;;;;;;;20.48;43.83;100688.94;104456;1290;59931;-81
2024/04/01 05:01:26;;;;;;;;;;;;;;;20.48;43.73;100685.73;104715;1291;62200;-80
2024/04/01 05:03:53;;;;;;;;;;;;;;;20.48;44.05;100687.73;104677;1289;62006;-80
2024/04/01 05:06:18;;;;;;;;;;;;;;;20.47;43.95;100682.97;104771;1290;60113;-81
2024/04/01 05:08:45;;;;;;;;;;;;;;;20.46;44.02;100688.55;104499;1290;62130;-80
2024/04/01 05:11:11;;;;;;;;;;;;;;;20.46;44.13;100688.39;104248;1290;62143;-81
2024/04/01 05:13:36;;;;;;;;;;;;;;;20.45;44.03;100689.48;103983;1292;62197;-81
2024/04/01 05:16:05;;;;;;;;;;;;;;;20.46;44.00;100692.46;103997;1289;61458;-80
2024/04/01 05:18:33;;;;;;;;;;;;;;;20.47;43.88;100690.27;104085;1289;62118;-81
2024/04/01 05:20:59;;;;;;;;;;;;;;;20.47;43.99;100692.93;104381;1289;62521;-81
2024/04/01 05:23:24;;;;;;;;;;;;;;;20.47;44.00;100692.94;104224;1291;62184;-80
2024/04/01 05:25:50;;;;;;;;;;;;;;;20.47;44.15;100697.24;103946;1296;62297;-79
2024/04/01 05:28:16;;;;;;;;;;;;;;;20.47;44.17;100702.61;104174;1289;62121;-81
2024/04/01 05:30:41;;;;;;;;;;;;;;;20.48;44.13;100701.67;104318;1291;60703;-80
2024/04/01 05:33:07;;;;;;;;;;;;;;;20.48;43.95;100697.20;103937;1291;64379;-80
2024/04/01 05:35:33;;;;;;;;;;;;;;;20.48;44.04;100695.40;103626;1289;62278;-80
2024/04/01 05:37:59;;;;;;;;;;;;;;;20.48;44.09;100698.23;104068;1294;62126;-81
2024/04/01 05:40:26;;;;;;;;;;;;;;;20.48;44.00;100698.77;104318;1289;62582;-82
2024/04/01 05:42:51;;;;;;;;;;;;;;;20.49;44.07;100702.70;104167;1294;62150;-81
2024/04/01 05:45:17;;;;;;;;;;;;;;;20.48;43.95;100704.14;104198;1290;62083;-81
2024/04/01 05:47:42;;;;;;;;;;;;;;;20.49;43.98;100708.40;103963;1294;62193;-81
2024/04/01 05:50:08;;;;;;;;;;;;;;;20.49;43.91;100704.09;104115;1289;62192;-79
2024/04/01 05:52:33;;;;;;;;;;;;;;;20.49;43.96;100702.84;104135;1291;62164;-81
2024/04/01 05:55:00;;;;;;;;;;;;;;;20.46;44.17;100699.84;104181;1289;62172;-79
2024/04/01 05:57:26;;;;;;;;;;;;;;;20.44;44.13;100700.50;104192;1290;62198;-80
2024/04/01 05:59:51;;;;;;;;;;;;;;;20.46;44.27;100696.23;104263;1294;62179;-82
2024/04/01 06:02:17;;;;;;;;;;;;;;;20.48;44.20;100690.20;104501;1290;62274;-80
2024/04/01 06:04:42;;;;;;;;;;;;;;;20.49;44.27;100691.58;104779;1294;62219;-80
2024/04/01 06:07:08;;;;;;;;;;;;;;;20.48;44.40;100691.64;104977;1289;62083;-81
2024/04/01 06:09:34;;;;;;;;;;;;;;;20.47;44.36;100689.56;104563;1291;62198;-81
2024/04/01 06:12:00;;;;;;;;;;;;;;;20.48;44.18;100689.89;104864;1291;62067;-80
2024/04/01 06:14:25;;;;;;;;;;;;;;;20.49;44.43;100685.67;104848;1289;59931;-80
2024/04/01 06:16:51;;;;;;;;;;;;;;;20.51;44.39;100685.71;104740;1291;62150;-80
2024/04/01 06:19:17;;;;;;;;;;;;;;;20.54;44.55;100680.48;104834;1290;62200;-80
2024/04/01 06:21:43;;;;;;;;;;;;;;;20.56;44.57;100683.52;104694;1291;72548;-80
2024/04/01 06:24:08;;;;;;;;;;;;;;;20.59;44.53;100679.56;104658;1291;62070;-80
2024/04/01 06:26:36;;;;;;;;;;;;;;;20.61;44.52;100674.79;104822;1290;62199;-80
2024/04/01 06:29:02;;;;;;;;;;;;;;;20.64;44.54;100668.02;104911;1289;61951;-80
2024/04/01 06:31:27;;;;;;;;;;;;;;;20.64;44.52;100664.22;104974;1289;62026;-80
2024/04/01 06:33:53;;;;;;;;;;;;;;;20.65;44.55;100662.55;104580;1290;62112;-82
2024/04/01 06:36:19;;;;;;;;;;;;;;;20.65;44.53;100664.15;104690;1290;62201;-81
2024/04/01 06:38:46;;;;;;;;;;;;;;;20.66;44.41;100663.86;105012;1289;61511;-81
2024/04/01 06:41:11;;;;;;;;;;;;;;;20.68;44.29;100663.59;104756;1291;61967;-81
2024/04/01 06:43:37;;;;;;;;;;;;;;;20.68;44.42;100658.90;104712;1289;60231;-81
2024/04/01 06:46:03;;;;;;;;;;;;;;;20.70;44.38;100658.98;104862;1291;76312;-81
2024/04/01 06:48:28;;;;;;;;;;;;;;;20.72;44.09;100656.20;104857;1289;62070;-80
2024/04/01 06:50:54;;;;;;;;;;;;;;;20.73;44.28;100657.90;104656;1290;60250;-80
2024/04/01 06:53:21;;;;;;;;;;;;;;;20.74;44.13;100660.14;104832;1291;63165;-81
2024/04/01 06:55:48;;;;;;;;;;;;;;;20.74;44.07;100660.11;105100;1290;62112;-81
2024/04/01 06:58:14;;;;;;;;;;;;;;;20.73;44.09;100664.12;105061;1289;62209;-81
2024/04/01 07:00:40;;;;;;;;;;;;;;;20.74;44.36;100669.58;105136;1291;62191;-81
2024/04/01 07:03:05;;;;;;;;;;;;;;;20.77;44.28;100671.71;104970;1291;60391;-79
2024/04/01 07:05:31;;;;;;;;;;;;;;;20.80;44.39;100674.05;104715;1290;60173;-79
2024/04/01 07:07:57;;;;;;;;;;;;;;;20.81;44.34;100671.83;104716;1291;75542;-79
2024/04/01 07:10:23;;;;;;;;;;;;;;;20.81;44.43;100670.39;104630;1291;61968;-80
2024/04/01 07:12:48;;;;;;;;;;;;;;;20.83;44.56;100674.85;104403;1291;62173;-80
2024/04/01 07:15:14;;;;;;;;;;;;;;;20.86;44.52;100676.46;104677;1290;62189;-80
2024/04/01 07:17:43;;;;;;;;;;;;;;;20.88;44.66;100677.18;104254;1294;62171;-80
2024/04/01 07:20:11;;;;;;;;;;;;;;;20.91;44.56;100677.89;104440;1289;62522;-80
2024/04/01 07:22:37;;;;;;;;;;;;;;;20.91;44.58;100679.47;104390;1291;62192;-80
2024/04/01 07:25:05;;;;;;;;;;;;;;;20.92;44.54;100680.63;104498;1290;62054;-80
2024/04/01 07:27:34;;;;;;;;;;;;;;;20.92;44.45;100687.27;104251;1291;74980;-80
2024/04/01 07:30:09;;;;;;;;;;;;;;;20.93;44.71;100685.24;105976;1291;61847;-80
2024/04/01 07:32:35;;;;;;;;;;;;;;;20.94;44.58;100687.85;106050;1290;59994;-80
2024/04/01 07:35:01;;;;;;;;;;;;;;;20.95;44.61;100690.83;105961;1290;59955;-80
2024/04/01 07:37:26;;;;;;;;;;;;;;;20.95;44.61;100692.27;105815;1289;59995;-80
2024/04/01 07:39:55;;;;;;;;;;;;;;;20.96;44.65;100692.91;105992;1289;59839;-80
2024/04/01 07:42:21;;;;;;;;;;;;;;;20.97;44.71;100687.11;106023;1289;59875;-80
2024/04/01 07:44:47;;;;;;;;;;;;;;;20.98;44.58;100690.61;105908;1291;60264;-80
2024/04/01 07:47:12;;;;;;;;;;;;;;;20.99;44.62;100688.05;106036;1289;60041;-79
2024/04/01 07:49:38;;;;;;;;;;;;;;;21.00;44.58;100691.36;105997;1289;60229;-80
2024/04/01 07:52:06;;;;;;;;;;;;;;;21.02;44.67;100692.30;105911;1289;59869;-79
2024/04/01 07:54:32;;;;;;;;;;;;;;;21.03;44.62;100690.08;105980;1291;59827;-80
2024/04/01 07:57:02;;;;;;;;;;;;;;;21.05;44.77;100688.33;105899;1289;60912;-81
2024/04/01 07:59:28;;;;;;;;;;;;;;;21.07;44.83;100684.41;105852;1289;59813;-81
2024/04/01 08:01:53;;;;;;;;;;;;;;;21.10;45.09;100682.92;105838;1289;61028;-80
2024/04/01 08:04:19;;;;;;;;;;;;;;;21.14;45.20;100677.27;105815;1290;60240;-80
2024/04/01 08:06:45;;;;;;;;;;;;;;;21.17;45.23;100680.10;105841;1289;60204;-81
2024/04/01 08:09:11;;;;;;;;;;;;;;;21.19;45.34;100679.58;105842;1290;60130;-81
2024/04/01 08:11:37;;;;;;;;;;;;;;;21.23;45.49;100682.55;105917;1290;60393;-80
2024/04/01 08:14:03;;;;;;;;;;;;;;;21.24;45.60;100678.70;105775;1290;59929;-80
2024/04/01 08:16:28;;;;;;;;;;;;;;;21.24;45.44;100678.32;105917;1292;60249;-80
2024/04/01 08:18:54;;;;;;;;;;;;;;;21.24;45.43;100675.98;105798;1291;60529;-79
2024/04/01 08:21:19;;;;;;;;;;;;;;;21.26;45.51;100674.77;105892;1290;59949;-79
2024/04/01 08:23:46;;;;;;;;;;;;;;;21.28;45.44;100674.15;105848;1290;60169;-78
2024/04/01 08:26:12;;;;;;;;;;;;;;;21.27;45.48;100676.33;105793;1289;59574;-79
2024/04/01 08:28:37;;;;;;;;;;;;;;;21.26;45.26;100675.13;105936;1290;59824;-80
2024/04/01 08:31:03;;;;;;;;;;;;;;;21.27;45.37;100680.47;105849;1294;60883;-80
2024/04/01 08:33:29;;;;;;;;;;;;;;;21.25;45.45;100679.83;105944;1289;59946;-81
2024/04/01 08:35:54;;;;;;;;;;;;;;;21.25;45.48;100684.52;105790;1291;60307;-81
2024/04/01 08:38:20;;;;;;;;;;;;;;;21.25;45.45;100683.10;105948;1289;59744;-81
2024/04/01 08:40:53;;;;;;;;;;;;;;;21.25;45.45;100686.89;105812;1291;59947;-81
2024/04/01 08:43:22;;;;;;;;;;;;;;;21.25;45.48;100687.78;105944;1291;59635;-81
2024/04/01 08:45:47;;;;;;;;;;;;;;;21.25;45.65;100684.01;105960;1290;60497;-81
2024/04/01 08:48:13;;;;;;;;;;;;;;;21.25;45.54;100677.16;105960;1289;59748;-82
2024/04/01 08:50:43;;;;;;;;;;;;;;;21.25;45.43;100674.11;105983;1290;59934;-81
2024/04/01 08:53:12;;;;;;;;;;;;;;;21.27;45.58;100665.59;105868;1290;60187;-79
2024/04/01 08:55:38;;;;;;;;;;;;;;;21.32;45.54;100660.58;105601;1289;61394;-79
2024/04/01 08:58:04;;;;;;;;;;;;;;;21.38;45.60;100657.23;105793;1292;60199;-80
2024/04/01 09:00:30;;;;;;;;;;;;;;;21.44;45.71;100658.61;105835;1291;60266;-81
2024/04/01 09:02:55;;;;;;;;;;;;;;;21.48;45.86;100656.48;106004;1289;59503;-79
2024/04/01 09:05:21;;;;;;;;;;;;;;;21.51;45.63;100655.39;105939;1289;60318;-79
2024/04/01 09:07:46;;;;;;;;;;;;;;;21.53;45.46;100650.09;105742;1291;60241;-79
2024/04/01 09:10:12;;;;;;;;;;;;;;;21.52;45.50;100646.15;105391;1292;71684;-81
2024/04/01 09:12:42;;;;;;;;;;;;;;;21.54;45.47;100646.20;105518;1291;60653;-81
2024/04/01 09:15:11;;;;;;;;;;;;;;;21.57;45.26;100646.55;105545;1292;60326;-80
2024/04/01 09:17:36;;;;;;;;;;;;;;;21.58;45.19;100642.21;105517;1291;60820;-80
2024/04/01 09:20:04;;;;;;;;;;;;;;;21.57;45.14;100640.80;105601;1291;60261;-79
2024/04/01 09:22:33;;;;;;;;;;;;;;;21.57;45.02;100634.39;105755;1291;75279;-80
2024/04/01 09:24:58;;;;;;;;;;;;;;;21.55;45.04;100630.94;105694;1291;60342;-80
2024/04/01 09:27:25;;;;;;;;;;;;;;;21.54;44.97;100626.56;105633;1291;59933;-80
2024/04/01 09:29:51;;;;;;;;;;;;;;;21.52;44.97;100623.80;105760;1291;60271;-81
2024/04/01 09:32:16;;;;;;;;;;;;;;;21.51;45.00;100625.31;105729;1292;60197;-80
2024/04/01 09:34:42;;;;;;;;;;;;;;;21.50;44.91;100618.02;105658;1291;61395;-79
2024/04/01 09:37:09;;;;;;;;;;;;;;;21.49;45.00;100618.63;105685;1292;60441;-79
2024/04/01 09:39:35;;;;;;;;;;;;;;;21.48;44.82;100615.70;105696;1291;60387;-79
2024/04/01 09:42:00;;;;;;;;;;;;;;;21.47;44.91;100613.77;105603;1291;61137;-80
2024/04/01 09:44:26;;;;;;;;;;;;;;;21.46;44.81;100615.45;105848;1289;59905;-80
2024/04/01 09:46:53;;;;;;;;;;;;;;;21.46;44.98;100606.73;105918;1289;60043;-81
2024/04/01 09:49:19;;;;;;;;;;;;;;;21.46;44.65;100603.30;106010;1290;60908;-79
2024/04/01 09:51:44;;;;;;;;;;;;;;;21.47;44.64;100601.27;105905;1291;59788;-80
2024/04/01 09:54:10;;;;;;;;;;;;;;;21.49;44.63;100601.48;105952;1290;60236;-80
2024/04/01 09:56:57;;;;;;;;;;;;;;;21.50;44.59;100594.21;105974;1290;60322;-79
2024/04/01 09:59:35;;;;;;;;;;;;;;;21.51;44.60;100597.90;105950;1288;60953;-80
2024/04/01 10:02:04;;;;;;;;;;;;;;;21.51;44.53;100594.88;105795;1291;72338;-79
2024/04/01 10:04:38;;;;;;;;;;;;;;;21.52;44.43;100592.48;105760;1290;75602;-81
2024/04/01 10:07:04;;;;;;;;;;;;;;;21.54;44.57;100595.23;105778;1290;60964;-79
2024/04/01 10:09:38;;;;;;;;;;;;;;;21.54;44.47;100596.98;105967;1289;59733;-80
2024/04/01 10:12:27;;;;;;;;;;;;;;;21.57;44.58;100598.04;105888;1290;73152;-79
2024/04/01 10:15:13;;;;;;;;;;;;;;;21.61;44.63;100600.63;105894;1289;75146;-80
2024/04/01 10:17:42;;;;;;;;;;;;;;;21.66;44.96;100601.27;105640;1289;60208;-80
2024/04/01 10:20:40;;;;;;;;;;;;;;;21.69;45.00;100602.30;105319;1291;60348;-80
2024/04/01 10:23:18;;;;;;;;;;;;;;;21.72;44.73;100605.13;104349;1296;72456;-80
2024/04/01 10:25:46;;;;;;;;;;;;;;;21.74;44.67;100600.83;104178;1297;75243;-79
2024/04/01 10:28:12;;;;;;;;;;;;;;;21.75;44.47;100603.48;104043;1296;60573;-79
2024/04/01 10:30:43;;;;;;;;;;;;;;;21.73;44.22;100602.53;103835;1296;62283;-78
2024/04/01 10:33:27;;;;;;;;;;;;;;;21.71;44.23;100602.52;104710;1296;72474;-79
2024/04/01 10:35:59;;;;;;;;;;;;;;;21.69;44.02;100607.16;103943;1297;75081;-80
2024/04/01 10:38:56;;;;;;;;;;;;;;;21.67;44.09;100607.15;103852;1297;61450;-78
2024/04/01 10:41:22;;;;;;;;;;;;;;;21.66;43.70;100611.71;103545;1297;62208;-80
2024/04/01 10:43:56;;;;;;;;;;;;;;;21.65;43.77;100611.23;104109;1297;62294;-80
2024/04/01 10:46:27;;;;;;;;;;;;;;;21.63;43.65;100610.88;103828;1302;75461;-79
2024/04/01 10:49:13;;;;;;;;;;;;;;;21.59;43.46;100609.48;103839;1297;62352;-80
2024/04/01 10:52:02;;;;;;;;;;;;;;;21.57;43.66;100606.98;103424;1302;62091;-79
2024/04/01 10:54:32;;;;;;;;;;;;;;;21.55;43.39;100613.06;102987;1309;72621;-80
2024/04/01 10:57:16;;;;;;;;;;;;;;;21.53;43.45;100610.31;103118;1309;76312;-80
2024/04/01 10:59:41;;;;;;;;;;;;;;;21.51;43.29;100604.34;103314;1303;62097;-80
2024/04/01 11:02:13;;;;;;;;;;;;;;;21.51;43.29;100600.45;103714;1306;62308;-82
2024/04/01 11:04:57;;;;;;;;;;;;;;;21.53;43.33;100592.92;103756;1305;72650;-81
2024/04/01 11:07:29;;;;;;;;;;;;;;;21.59;43.42;100586.36;103924;1306;76221;-81
2024/04/01 11:10:08;;;;;;;;;;;;;;;21.64;43.54;100578.72;104131;1306;61947;-81
2024/04/01 11:12:44;;;;;;;;;;;;;;;21.70;43.44;100581.47;104186;1305;61096;-80
2024/04/01 11:15:09;;;;;;;;;;;;;;;21.74;43.45;100576.63;103988;1306;72772;-82
2024/04/01 11:17:35;;;;;;;;;;;;;;;21.77;43.67;100577.89;103850;1303;62192;-81
2024/04/01 11:20:29;;;;;;;;;;;;;;;21.79;43.81;100573.80;104167;1303;62186;-82
2024/04/01 11:23:10;;;;;;;;;;;;;;;21.82;43.73;100572.11;103478;1311;61951;-80
2024/04/01 11:25:57;;;;;;;;;;;;;;;21.84;43.90;100562.64;103562;1311;71810;-82
2024/04/01 11:28:46;;;;;;;;;;;;;;;21.84;43.91;100560.14;103199;1305;75470;-79
2024/04/01 11:31:14;;;;;;;;;;;;;;;21.84;43.95;100562.12;103818;1300;61347;-80
2024/04/01 11:34:05;;;;;;;;;;;;;;;21.84;43.99;100556.89;104286;1300;61815;-80
2024/04/01 11:36:33;;;;;;;;;;;;;;;21.83;44.05;100558.57;103980;1299;72631;-80
2024/04/01 11:39:03;;;;;;;;;;;;;;;21.83;43.91;100555.41;104087;1299;74476;-80
2024/04/01 11:41:29;;;;;;;;;;;;;;;21.82;44.00;100552.02;104040;1298;61574;-79
2024/04/01 11:43:55;;;;;;;;;;;;;;;21.82;44.06;100550.10;104277;1299;62120;-80
2024/04/01 11:46:21;;;;;;;;;;;;;;;21.81;43.88;100544.23;104192;1300;62158;-80
2024/04/01 11:48:53;;;;;;;;;;;;;;;21.81;43.94;100545.65;104241;1299;60661;-79
2024/04/01 11:51:29;;;;;;;;;;;;;;;21.81;43.90;100545.11;104033;1299;60187;-80
2024/04/01 11:53:54;;;;;;;;;;;;;;;21.81;43.85;100538.20;104179;1299;63434;-79
2024/04/01 11:56:21;;;;;;;;;;;;;;;21.79;43.96;100538.50;104440;1300;60701;-80
2024/04/01 11:58:48;;;;;;;;;;;;;;;21.77;43.82;100535.27;104370;1299;60731;-80
2024/04/01 12:01:14;;;;;;;;;;;;;;;21.75;43.75;100535.90;105088;1291;62079;-80
2024/04/01 12:03:40;;;;;;;;;;;;;;;21.74;43.70;100535.48;105289;1292;59924;-81
2024/04/01 12:06:06;;;;;;;;;;;;;;;21.73;43.69;100530.21;105246;1291;62189;-80
2024/04/01 12:08:32;;;;;;;;;;;;;;;21.74;43.63;100525.84;105388;1294;60468;-80
2024/04/01 12:10:58;;;;;;;;;;;;;;;21.74;43.53;100525.77;105500;1289;60477;-80
2024/04/01 12:13:24;;;;;;;;;;;;;;;21.76;43.34;100521.14;105208;1289;61989;-81
2024/04/01 12:15:50;;;;;;;;;;;;;;;21.78;43.22;100517.48;105105;1289;60045;-80
2024/04/01 12:18:16;;;;;;;;;;;;;;;21.78;43.20;100505.48;105079;1289;62121;-79
2024/04/01 12:20:41;;;;;;;;;;;;;;;21.77;43.18;100505.13;105094;1291;75071;-79
2024/04/01 12:23:07;;;;;;;;;;;;;;;21.77;43.03;100500.29;105203;1291;62053;-80
2024/04/01 12:25:36;;;;;;;;;;;;;;;21.79;43.29;100494.30;105197;1291;59871;-80
2024/04/01 12:28:02;;;;;;;;;;;;;;;21.79;43.24;100492.27;105288;1294;72950;-80